createdAt,value
2019-03-30T00:00:12.904Z,69.46
2019-03-30T00:02:42.964Z,69.65
2019-03-30T00:05:13.051Z,69.46
2019-03-30T00:07:43.165Z,69.57
2019-03-30T00:10:13.233Z,70.72
2019-03-30T00:12:43.302Z,71.69
2019-03-30T00:15:13.379Z,72.32
2019-03-30T00:17:43.569Z,73.41
2019-03-30T00:20:13.635Z,74.50
2019-03-30T00:22:43.707Z,74.83
2019-03-30T00:25:13.807Z,75.63
2019-03-30T00:27:43.875Z,76.46
2019-03-30T00:30:14.005Z,77.08
2019-03-30T00:32:44.089Z,77.72
2019-03-30T00:35:14.181Z,78.22
2019-03-30T00:37:44.275Z,79.07
2019-03-30T00:40:14.383Z,79.28
2019-03-30T00:42:44.471Z,79.73
2019-03-30T00:45:14.569Z,80.28
2019-03-30T00:47:44.645Z,80.69
2019-03-30T00:50:14.724Z,81.09
2019-03-30T00:52:44.893Z,81.86
2019-03-30T00:55:14.974Z,82.20
2019-03-30T00:57:45.059Z,81.86
2019-03-30T01:00:15.172Z,81.00
2019-03-30T01:02:45.246Z,80.98
2019-03-30T01:05:15.379Z,80.37
2019-03-30T01:07:45.619Z,80.55
2019-03-30T01:10:15.925Z,80.46
2019-03-30T01:12:46.266Z,79.87
2019-03-30T01:15:16.625Z,78.29
2019-03-30T01:17:46.714Z,77.57
2019-03-30T01:20:16.797Z,77.30
2019-03-30T01:22:46.948Z,77.17
2019-03-30T01:25:17.038Z,77.13
2019-03-30T01:27:47.230Z,77.61
2019-03-30T01:30:23.244Z,77.03
2019-03-30T01:32:49.135Z,76.25
2019-03-30T01:35:19.345Z,76.21
2019-03-30T01:37:49.364Z,75.71
2019-03-30T01:40:19.476Z,75.57
2019-03-30T01:42:49.561Z,75.43
2019-03-30T01:45:19.643Z,75.84
2019-03-30T01:47:49.724Z,75.37
2019-03-30T01:50:19.820Z,75.24
2019-03-30T01:52:49.909Z,75.02
2019-03-30T01:55:20.000Z,74.84
2019-03-30T01:57:50.091Z,74.83
2019-03-30T02:00:20.241Z,74.68
2019-03-30T02:02:50.341Z,74.66
2019-03-30T02:05:20.434Z,74.69
2019-03-30T02:07:50.537Z,73.58
2019-03-30T02:10:38.335Z,73.79
2019-03-30T02:13:08.460Z,73.00
2019-03-30T02:15:38.562Z,72.69
2019-03-30T02:18:08.738Z,72.89
2019-03-30T02:20:40.317Z,72.66
2019-03-30T02:23:10.447Z,73.08
2019-03-30T02:25:40.527Z,73.26
2019-03-30T02:28:10.802Z,73.24
2019-03-30T02:30:41.007Z,73.13
2019-03-30T02:33:11.092Z,73.22
2019-03-30T02:35:41.235Z,73.20
2019-03-30T02:38:11.368Z,73.28
2019-03-30T02:40:41.473Z,73.21
2019-03-30T02:43:11.531Z,72.83
2019-03-30T02:45:41.665Z,72.24
2019-03-30T02:48:11.758Z,72.73
2019-03-30T02:50:50.069Z,72.92
2019-03-30T02:53:13.644Z,73.33
2019-03-30T02:55:43.741Z,73.76
2019-03-30T02:58:13.834Z,74.65
2019-03-30T03:00:43.925Z,74.98
2019-03-30T03:03:14.043Z,75.42
2019-03-30T03:05:44.214Z,75.72
2019-03-30T03:08:14.280Z,75.71
2019-03-30T03:10:44.423Z,75.36
2019-03-30T03:13:14.615Z,74.84
2019-03-30T03:15:44.721Z,74.49
2019-03-30T03:18:14.790Z,75.36
2019-03-30T03:20:44.889Z,76.43
2019-03-30T03:23:14.999Z,76.07
2019-03-30T03:25:45.080Z,75.99
2019-03-30T03:28:15.290Z,75.63
2019-03-30T03:30:45.385Z,75.56
2019-03-30T03:33:15.510Z,75.72
2019-03-30T03:35:45.618Z,75.87
2019-03-30T03:38:15.714Z,76.03
2019-03-30T03:40:45.793Z,76.57
2019-03-30T03:43:15.866Z,76.73
2019-03-30T03:45:45.970Z,76.59
2019-03-30T03:48:16.045Z,76.87
2019-03-30T03:50:48.575Z,76.49
2019-03-30T03:53:18.659Z,76.75
2019-03-30T03:55:49.204Z,76.22
2019-03-30T03:58:19.309Z,76.86
2019-03-30T04:00:49.411Z,77.27
2019-03-30T04:03:19.528Z,77.01
2019-03-30T04:05:49.614Z,77.19
2019-03-30T04:08:19.822Z,77.25
2019-03-30T04:10:50.444Z,77.16
2019-03-30T04:13:20.561Z,76.71
2019-03-30T04:15:50.622Z,76.83
2019-03-30T04:18:20.737Z,76.78
2019-03-30T04:20:50.826Z,76.28
2019-03-30T04:23:20.908Z,76.21
2019-03-30T04:25:51.016Z,76.19
2019-03-30T04:28:21.117Z,75.41
2019-03-30T04:30:51.221Z,74.89
2019-03-30T04:33:22.940Z,74.85
2019-03-30T04:35:54.136Z,75.35
2019-03-30T04:38:24.235Z,74.63
2019-03-30T04:40:54.347Z,75.48
2019-03-30T04:43:24.435Z,75.49
2019-03-30T04:45:54.559Z,76.20
2019-03-30T04:48:24.666Z,76.04
2019-03-30T04:50:54.760Z,75.90
2019-03-30T04:53:24.866Z,76.15
2019-03-30T04:55:54.946Z,76.16
2019-03-30T04:58:25.078Z,76.70
2019-03-30T05:00:55.198Z,76.84
2019-03-30T05:03:25.318Z,77.08
2019-03-30T05:05:55.385Z,77.37
2019-03-30T05:08:25.517Z,76.80
2019-03-30T05:10:55.620Z,76.85
2019-03-30T05:13:25.712Z,76.23
2019-03-30T05:15:55.783Z,76.48
2019-03-30T05:18:25.931Z,76.36
2019-03-30T05:20:56.041Z,76.33
2019-03-30T05:23:26.139Z,75.54
2019-03-30T05:25:56.250Z,74.52
2019-03-30T05:28:26.352Z,74.87
2019-03-30T05:30:56.436Z,75.10
2019-03-30T05:33:26.507Z,76.24
2019-03-30T05:35:56.620Z,75.81
2019-03-30T05:38:26.717Z,76.07
2019-03-30T05:40:56.875Z,75.58
2019-03-30T05:43:27.021Z,74.48
2019-03-30T05:45:57.163Z,74.85
2019-03-30T05:48:27.445Z,75.13
2019-03-30T05:50:57.535Z,75.52
2019-03-30T05:53:27.629Z,75.40
2019-03-30T05:55:57.735Z,74.51
2019-03-30T05:58:27.995Z,74.40
2019-03-30T06:00:58.149Z,73.78
2019-03-30T06:03:28.303Z,73.53
2019-03-30T06:05:58.501Z,73.87
2019-03-30T06:08:28.638Z,73.66
2019-03-30T06:10:58.783Z,73.39
2019-03-30T06:13:28.930Z,73.08
2019-03-30T06:15:59.006Z,73.83
2019-03-30T06:18:29.169Z,73.03
2019-03-30T06:20:59.238Z,72.62
2019-03-30T06:23:29.362Z,72.54
2019-03-30T06:25:59.457Z,73.54
2019-03-30T06:28:29.525Z,72.13
2019-03-30T06:30:59.614Z,72.25
2019-03-30T06:33:29.741Z,72.00
2019-03-30T06:35:59.829Z,72.64
2019-03-30T06:38:30.103Z,72.87
2019-03-30T06:41:00.214Z,72.25
2019-03-30T06:43:30.337Z,72.45
2019-03-30T06:46:00.439Z,71.83
2019-03-30T06:48:30.541Z,71.62
2019-03-30T06:51:00.627Z,71.09
2019-03-30T06:53:30.705Z,70.43
2019-03-30T06:56:00.779Z,70.20
2019-03-30T06:58:31.017Z,71.11
2019-03-30T07:01:01.253Z,70.38
2019-03-30T07:03:31.357Z,70.24
2019-03-30T07:06:01.571Z,69.53
2019-03-30T07:08:31.852Z,67.66
2019-03-30T07:11:02.180Z,66.81
2019-03-30T07:13:32.264Z,67.08
2019-03-30T07:16:02.476Z,67.31
2019-03-30T07:18:32.584Z,67.27
2019-03-30T07:21:02.700Z,66.77
2019-03-30T07:23:32.786Z,65.55
2019-03-30T07:26:02.898Z,64.82
2019-03-30T07:28:32.985Z,66.18
2019-03-30T07:31:03.072Z,65.52
2019-03-30T07:33:33.161Z,65.49
2019-03-30T07:36:03.300Z,65.88
2019-03-30T07:38:33.552Z,65.98
2019-03-30T07:41:03.735Z,66.32
2019-03-30T07:43:33.946Z,66.66
2019-03-30T07:46:04.058Z,66.25
2019-03-30T07:48:34.174Z,66.11
2019-03-30T07:51:04.264Z,65.16
2019-03-30T07:53:44.281Z,64.66
2019-03-30T07:56:08.653Z,64.08
2019-03-30T07:58:38.013Z,63.63
2019-03-30T08:01:08.115Z,63.11
2019-03-30T08:03:38.211Z,63.17
2019-03-30T08:06:08.255Z,62.82
2019-03-30T08:08:38.416Z,62.45
2019-03-30T08:11:08.508Z,62.30
2019-03-30T08:13:38.682Z,63.15
2019-03-30T08:16:08.765Z,61.58
2019-03-30T08:18:38.859Z,61.67
2019-03-30T08:21:09.271Z,62.46
2019-03-30T08:23:40.518Z,62.21
2019-03-30T08:26:10.934Z,61.82
2019-03-30T08:28:41.071Z,60.96
2019-03-30T08:31:11.178Z,60.32
2019-03-30T08:33:41.340Z,59.86
2019-03-30T08:36:11.451Z,59.73
2019-03-30T08:38:41.547Z,59.47
2019-03-30T08:41:11.633Z,58.27
2019-03-30T08:43:41.736Z,57.40
2019-03-30T08:46:11.870Z,56.58
2019-03-30T08:48:42.073Z,57.23
2019-03-30T08:51:12.227Z,55.86
2019-03-30T08:53:54.035Z,55.53
2019-03-30T08:56:14.256Z,56.23
2019-03-30T08:58:44.374Z,55.12
2019-03-30T09:01:14.467Z,53.34
2019-03-30T09:03:44.781Z,50.38
2019-03-30T09:06:14.892Z,48.78
2019-03-30T09:08:45.005Z,47.52
2019-03-30T09:11:15.101Z,45.91
2019-03-30T09:13:45.317Z,43.35
2019-03-30T09:16:15.539Z,43.15
2019-03-30T09:18:45.658Z,42.73
2019-03-30T09:21:15.767Z,40.49
2019-03-30T09:23:45.887Z,39.00
2019-03-30T09:26:16.819Z,40.82
2019-03-30T09:28:46.942Z,39.20
2019-03-30T09:31:17.055Z,39.25
2019-03-30T09:33:48.375Z,37.92
2019-03-30T09:36:18.458Z,37.53
2019-03-30T09:38:48.642Z,36.94
2019-03-30T09:41:18.723Z,36.66
2019-03-30T09:43:48.895Z,36.83
2019-03-30T09:46:19.103Z,36.58
2019-03-30T09:48:49.308Z,36.72
2019-03-30T09:51:19.507Z,34.52
2019-03-30T09:53:49.680Z,34.42
2019-03-30T09:56:19.785Z,35.48
2019-03-30T09:58:49.872Z,35.88
2019-03-30T10:01:19.973Z,35.17
2019-03-30T10:03:50.049Z,34.96
2019-03-30T10:06:20.237Z,34.17
2019-03-30T10:08:50.494Z,34.87
2019-03-30T10:11:20.722Z,35.48
2019-03-30T10:13:50.858Z,35.77
2019-03-30T10:16:21.021Z,34.62
2019-03-30T10:18:51.259Z,34.68
2019-03-30T10:21:21.460Z,34.57
2019-03-30T10:23:51.574Z,34.49
2019-03-30T10:26:21.674Z,34.36
2019-03-30T10:28:51.774Z,35.06
2019-03-30T10:31:21.842Z,35.40
2019-03-30T10:33:51.962Z,34.90
2019-03-30T10:36:22.042Z,36.09
2019-03-30T10:38:52.327Z,36.80
2019-03-30T10:41:22.627Z,37.11
2019-03-30T10:43:52.843Z,37.29
2019-03-30T10:46:23.011Z,37.00
2019-03-30T10:48:53.294Z,36.24
2019-03-30T10:51:23.413Z,35.20
2019-03-30T10:53:53.491Z,34.00
2019-03-30T10:56:23.579Z,33.59
2019-03-30T10:58:53.773Z,32.84
2019-03-30T11:01:23.870Z,31.71
2019-03-30T11:03:53.961Z,31.51
2019-03-30T11:06:24.057Z,31.84
2019-03-30T11:08:54.137Z,32.10
2019-03-30T11:11:24.231Z,31.60
2019-03-30T11:13:54.372Z,31.61
2019-03-30T11:16:24.480Z,31.59
2019-03-30T11:18:54.638Z,31.13
2019-03-30T11:21:24.808Z,28.87
2019-03-30T11:23:54.960Z,28.18
2019-03-30T11:26:25.052Z,28.23
2019-03-30T11:28:55.178Z,29.52
2019-03-30T11:31:25.398Z,29.60
2019-03-30T11:33:55.550Z,29.21
2019-03-30T11:36:25.656Z,29.72
2019-03-30T11:38:55.763Z,28.67
2019-03-30T11:41:25.863Z,27.27
2019-03-30T11:43:55.966Z,27.35
2019-03-30T11:46:26.095Z,27.00
2019-03-30T11:48:56.195Z,26.62
2019-03-30T11:51:26.374Z,25.73
2019-03-30T11:53:56.498Z,27.88
2019-03-30T11:56:26.660Z,29.21
2019-03-30T11:58:56.910Z,28.02
2019-03-30T12:01:27.032Z,27.94
2019-03-30T12:03:57.124Z,26.64
2019-03-30T12:06:27.305Z,25.55
2019-03-30T12:08:57.718Z,24.90
2019-03-30T12:11:27.761Z,24.79
2019-03-30T12:13:57.959Z,26.36
2019-03-30T12:16:28.087Z,26.69
2019-03-30T12:18:58.494Z,26.79
2019-03-30T12:21:28.661Z,28.81
2019-03-30T12:24:00.513Z,28.64
2019-03-30T12:26:31.086Z,28.63
2019-03-30T12:29:01.272Z,29.60
2019-03-30T12:31:31.811Z,28.97
2019-03-30T12:34:01.916Z,29.92
2019-03-30T12:36:31.994Z,30.24
2019-03-30T12:39:02.094Z,31.81
2019-03-30T12:41:32.206Z,32.74
2019-03-30T12:44:02.350Z,34.28
2019-03-30T12:46:32.435Z,35.11
2019-03-30T12:49:02.649Z,35.80
2019-03-30T12:51:32.758Z,36.11
2019-03-30T12:54:02.845Z,36.31
2019-03-30T12:56:32.956Z,36.56
2019-03-30T12:59:03.132Z,36.94
2019-03-30T13:01:33.241Z,37.74
2019-03-30T13:04:03.348Z,38.11
2019-03-30T13:06:33.457Z,38.42
2019-03-30T13:09:04.754Z,37.42
2019-03-30T13:11:34.861Z,37.03
2019-03-30T13:14:04.981Z,36.92
2019-03-30T13:16:35.113Z,37.62
2019-03-30T13:19:05.239Z,37.34
2019-03-30T13:21:35.352Z,37.58
2019-03-30T13:24:05.470Z,37.61
2019-03-30T13:26:35.565Z,37.45
2019-03-30T13:29:05.831Z,38.05
2019-03-30T13:31:35.982Z,38.26
2019-03-30T13:34:06.051Z,38.03
2019-03-30T13:36:43.072Z,37.91
2019-03-30T13:39:13.161Z,38.47
2019-03-30T13:41:43.278Z,38.63
2019-03-30T13:44:15.607Z,39.18
2019-03-30T13:46:45.690Z,39.26
2019-03-30T13:49:15.767Z,38.44
2019-03-30T13:51:45.853Z,39.24
2019-03-30T13:54:15.966Z,40.07
2019-03-30T13:56:46.112Z,40.25
2019-03-30T13:59:16.176Z,39.94
2019-03-30T14:01:46.282Z,40.25
2019-03-30T14:04:16.363Z,41.40
2019-03-30T14:06:46.453Z,39.81
2019-03-30T14:09:16.548Z,40.07
2019-03-30T14:11:46.695Z,39.86
2019-03-30T14:14:16.777Z,40.76
2019-03-30T14:16:46.882Z,40.81
2019-03-30T14:19:16.970Z,41.08
2019-03-30T14:21:47.043Z,42.15
2019-03-30T14:24:17.143Z,42.35
2019-03-30T14:26:47.211Z,42.10
2019-03-30T14:29:17.301Z,43.54
2019-03-30T14:31:47.404Z,43.44
2019-03-30T14:34:17.506Z,44.01
2019-03-30T14:36:47.598Z,44.14
2019-03-30T14:39:17.687Z,44.97
2019-03-30T14:41:47.804Z,45.31
2019-03-30T14:44:17.926Z,44.77
2019-03-30T14:46:48.005Z,44.38
2019-03-30T14:49:18.186Z,44.32
2019-03-30T14:51:48.331Z,44.27
2019-03-30T14:54:18.420Z,43.99
2019-03-30T14:56:48.514Z,44.71
2019-03-30T14:59:18.586Z,44.19
2019-03-30T15:01:48.683Z,44.92
2019-03-30T15:04:18.780Z,44.96
2019-03-30T15:06:48.874Z,45.10
2019-03-30T15:09:18.933Z,44.95
2019-03-30T15:11:49.030Z,45.50
2019-03-30T15:14:19.131Z,46.28
2019-03-30T15:16:49.275Z,46.77
2019-03-30T15:19:19.353Z,46.35
2019-03-30T15:21:49.468Z,46.28
2019-03-30T15:24:19.539Z,46.36
2019-03-30T15:26:59.691Z,46.34
2019-03-30T15:29:21.626Z,47.32
2019-03-30T15:31:51.716Z,47.40
2019-03-30T15:34:21.774Z,47.98
2019-03-30T15:36:51.881Z,47.62
2019-03-30T15:39:21.988Z,48.00
2019-03-30T15:41:52.075Z,48.66
2019-03-30T15:44:22.252Z,49.07
2019-03-30T15:46:52.631Z,49.74
2019-03-30T15:49:22.703Z,49.70
2019-03-30T15:51:52.787Z,49.53
2019-03-30T15:54:22.876Z,49.85
2019-03-30T15:56:52.977Z,50.64
2019-03-30T15:59:23.080Z,50.88
2019-03-30T16:01:53.148Z,51.33
2019-03-30T16:04:23.264Z,51.68
2019-03-30T16:06:53.358Z,52.07
2019-03-30T16:09:23.610Z,52.07
2019-03-30T16:11:53.771Z,52.42
2019-03-30T16:14:23.879Z,53.18
2019-03-30T16:16:53.971Z,53.60
2019-03-30T16:19:24.102Z,53.95
2019-03-30T16:21:54.208Z,54.43
2019-03-30T16:24:24.465Z,54.34
2019-03-30T16:26:54.555Z,55.04
2019-03-30T16:29:24.750Z,55.46
2019-03-30T16:31:54.930Z,55.33
2019-03-30T16:34:25.046Z,56.25
2019-03-30T16:36:55.151Z,58.05
2019-03-30T16:39:25.288Z,57.20
2019-03-30T16:41:55.368Z,57.75
2019-03-30T16:44:25.469Z,58.45
2019-03-30T16:46:57.473Z,59.15
2019-03-30T16:49:27.505Z,59.77
2019-03-30T16:51:57.656Z,61.15
2019-03-30T16:54:27.730Z,61.89
2019-03-30T16:56:57.826Z,63.06
2019-03-30T16:59:27.955Z,64.02
2019-03-30T17:01:58.092Z,65.11
2019-03-30T17:04:29.692Z,65.89
2019-03-30T17:07:00.006Z,66.60
2019-03-30T17:09:30.099Z,67.05
2019-03-30T17:12:00.204Z,67.66
2019-03-30T17:14:30.304Z,68.05
2019-03-30T17:17:00.432Z,68.13
2019-03-30T17:19:30.521Z,68.68
2019-03-30T17:22:00.640Z,68.93
2019-03-30T17:24:30.712Z,69.12
2019-03-30T17:27:00.871Z,69.49
2019-03-30T17:29:30.972Z,69.78
2019-03-30T17:32:01.065Z,70.15
2019-03-30T17:34:31.173Z,70.27
2019-03-30T17:37:01.257Z,70.67
2019-03-30T17:39:31.465Z,70.97
2019-03-30T17:42:01.546Z,71.38
2019-03-30T17:44:31.684Z,71.50
2019-03-30T17:47:01.794Z,71.87
2019-03-30T17:49:31.896Z,72.26
2019-03-30T17:52:01.973Z,72.39
2019-03-30T17:54:32.149Z,72.77
2019-03-30T17:57:02.247Z,73.23
2019-03-30T17:59:32.330Z,73.39
2019-03-30T18:02:02.442Z,73.85
2019-03-30T18:04:32.920Z,74.11
2019-03-30T18:07:03.095Z,74.24
2019-03-30T18:09:33.210Z,74.65
2019-03-30T18:12:03.297Z,75.00
2019-03-30T18:14:33.384Z,75.37
2019-03-30T18:17:03.489Z,75.42
2019-03-30T18:19:33.562Z,75.74
2019-03-30T18:22:03.662Z,76.05
2019-03-30T18:24:33.780Z,76.08
2019-03-30T18:27:03.873Z,76.46
2019-03-30T18:29:33.925Z,76.47
2019-03-30T18:32:04.022Z,76.72
2019-03-30T18:34:34.111Z,76.89
2019-03-30T18:37:04.279Z,77.06
2019-03-30T18:39:34.426Z,77.29
2019-03-30T18:42:04.497Z,77.40
2019-03-30T18:44:34.634Z,77.19
2019-03-30T18:47:07.816Z,77.29
2019-03-30T18:49:37.909Z,77.04
2019-03-30T18:52:08.090Z,77.01
2019-03-30T18:54:38.174Z,77.08
2019-03-30T18:57:08.285Z,77.30
2019-03-30T18:59:38.423Z,77.71
2019-03-30T19:02:08.569Z,77.92
2019-03-30T19:04:38.659Z,78.20
2019-03-30T19:07:08.768Z,78.50
2019-03-30T19:09:38.837Z,78.70
2019-03-30T19:12:08.940Z,78.84
2019-03-30T19:14:39.051Z,78.76
2019-03-30T19:17:09.128Z,79.04
2019-03-30T19:19:39.205Z,79.06
2019-03-30T19:22:09.315Z,79.09
2019-03-30T19:24:39.418Z,79.26
2019-03-30T19:27:09.498Z,80.00
2019-03-30T19:29:39.595Z,80.22
2019-03-30T19:32:09.815Z,80.39
2019-03-30T19:34:39.885Z,80.64
2019-03-30T19:37:09.979Z,80.88
2019-03-30T19:39:40.136Z,80.94
2019-03-30T19:42:10.231Z,81.22
2019-03-30T19:44:40.318Z,81.36
2019-03-30T19:47:10.433Z,81.88
2019-03-30T19:49:40.488Z,82.16
2019-03-30T19:52:10.569Z,82.12
2019-03-30T19:54:41.322Z,82.21
2019-03-30T19:57:11.389Z,82.45
2019-03-30T19:59:41.897Z,82.45
2019-03-30T20:02:12.090Z,82.60
2019-03-30T20:04:42.165Z,82.58
2019-03-30T20:07:12.255Z,82.69
2019-03-30T20:09:42.499Z,82.79
2019-03-30T20:12:12.737Z,82.69
2019-03-30T20:14:43.547Z,82.71
2019-03-30T20:17:13.653Z,82.86
2019-03-30T20:19:44.060Z,82.83
2019-03-30T20:22:14.221Z,83.08
2019-03-30T20:24:44.309Z,83.25
2019-03-30T20:27:14.544Z,83.48
2019-03-30T20:29:44.691Z,83.77
2019-03-30T20:32:22.061Z,83.90
2019-03-30T20:34:52.239Z,84.17
2019-03-30T20:37:22.317Z,84.46
2019-03-30T20:39:52.455Z,84.67
2019-03-30T20:42:22.585Z,84.88
2019-03-30T20:44:52.672Z,85.02
2019-03-30T20:47:22.830Z,85.34
2019-03-30T20:49:52.949Z,85.52
2019-03-30T20:52:23.162Z,85.80
2019-03-30T20:54:53.298Z,86.09
2019-03-30T20:57:23.388Z,86.20
2019-03-30T20:59:53.470Z,86.62
2019-03-30T21:02:23.555Z,86.87
2019-03-30T21:04:53.651Z,86.93
2019-03-30T21:07:23.721Z,87.12
2019-03-30T21:09:53.811Z,87.15
2019-03-30T21:12:23.874Z,87.22
2019-03-30T21:14:53.970Z,87.62
2019-03-30T21:17:24.063Z,88.06
2019-03-30T21:19:54.169Z,88.11
2019-03-30T21:22:24.272Z,88.31
2019-03-30T21:24:54.341Z,88.34
2019-03-30T21:27:24.409Z,88.63
2019-03-30T21:29:55.496Z,88.87
2019-03-30T21:32:25.581Z,89.17
2019-03-30T21:34:55.673Z,89.28
2019-03-30T21:37:25.766Z,89.39
2019-03-30T21:39:55.921Z,89.71
2019-03-30T21:42:26.025Z,89.82
2019-03-30T21:44:56.094Z,89.88
2019-03-30T21:47:26.214Z,90.22
2019-03-30T21:49:56.294Z,90.31
2019-03-30T21:52:26.418Z,90.48
2019-03-30T21:54:58.110Z,90.75
2019-03-30T21:57:28.441Z,91.06
2019-03-30T22:00:09.756Z,91.15
2019-03-30T22:02:34.559Z,91.37
2019-03-30T22:05:04.682Z,91.44
2019-03-30T22:07:35.732Z,91.67
2019-03-30T22:10:07.224Z,91.92
2019-03-30T22:12:38.236Z,92.29
2019-03-30T22:15:08.421Z,92.65
2019-03-30T22:17:38.551Z,93.11
2019-03-30T22:20:08.764Z,93.32
2019-03-30T22:22:38.896Z,93.53
2019-03-30T22:25:09.155Z,93.66
2019-03-30T22:27:39.245Z,93.75
2019-03-30T22:30:23.692Z,94.09
2019-03-30T22:32:41.165Z,94.71
2019-03-30T22:35:11.258Z,94.89
2019-03-30T22:37:41.333Z,94.95
2019-03-30T22:40:12.149Z,95.27
2019-03-30T22:42:42.225Z,96.23
2019-03-30T22:45:12.318Z,96.12
2019-03-30T22:47:42.403Z,96.64
2019-03-30T22:50:12.497Z,97.37
2019-03-30T22:52:42.568Z,97.52
2019-03-30T22:55:12.678Z,97.00
2019-03-30T22:57:42.782Z,96.74
2019-03-30T23:00:38.536Z,96.52
2019-03-30T23:03:04.246Z,96.23
2019-03-30T23:05:34.354Z,96.12
2019-03-30T23:08:04.456Z,96.28
2019-03-30T23:10:34.648Z,96.56
2019-03-30T23:13:04.805Z,96.80
2019-03-30T23:15:34.920Z,96.74
2019-03-30T23:18:05.095Z,96.82
2019-03-30T23:20:35.191Z,96.86
2019-03-30T23:23:05.341Z,97.12
2019-03-30T23:25:35.589Z,97.27
2019-03-30T23:28:05.694Z,97.44
2019-03-30T23:30:35.784Z,97.48
2019-03-30T23:33:05.861Z,97.60
2019-03-30T23:35:35.961Z,97.74
2019-03-30T23:38:06.070Z,97.86
2019-03-30T23:40:36.164Z,97.83
2019-03-30T23:43:06.263Z,97.90
2019-03-30T23:45:36.345Z,97.77
2019-03-30T23:48:06.439Z,97.78
2019-03-30T23:50:36.572Z,97.98
2019-03-30T23:53:07.582Z,98.18
2019-03-30T23:55:37.867Z,98.47
2019-03-30T23:58:07.931Z,98.66
